Time;durP1;ratioP1;P1;durP2;ratioP2;P2;SDS_P1;SDS_P2;PMS_P1;PMS_P2;Temp;Humidity;BMP_temperature;BMP_pressure;BME280_temperature;BME280_humidity;BME280_pressure;Samples;Min_cycle;Max_cycle;Signal;HPM_P1;HPM_P2
2022/01/01 00:02:29;;;;;;;10.35;6.03;;;;;;;-20.00;68.32;99910.56;5015409;28;20046;-61
2022/01/01 00:05:09;;;;;;;6.07;3.97;;;;;;;-20.33;67.26;99918.97;5018226;28;20355;-63
2022/01/01 00:07:40;;;;;;;18.85;5.97;;;;;;;-21.11;67.26;99850.94;5017213;28;20085;-61
2022/01/01 00:10:11;;;;;;;34.75;12.88;;;;;;;-20.71;67.39;99913.63;5015356;28;20042;-62
2022/01/01 00:12:43;;;;;;;29.15;10.80;;;;;;;-20.70;67.19;99895.50;5017171;28;20386;-63
2022/01/01 00:15:15;;;;;;;20.73;8.77;;;;;;;-20.77;67.04;99858.34;5017671;28;20068;-63
2022/01/01 00:17:46;;;;;;;17.80;9.07;;;;;;;-20.15;67.07;99915.78;5014737;28;20056;-63
2022/01/01 00:20:17;;;;;;;32.25;11.15;;;;;;;-19.90;66.93;99923.16;5017768;28;20054;-61
2022/01/01 00:22:48;;;;;;;10.77;5.90;;;;;;;-19.87;66.83;99948.31;5016068;28;20113;-61
2022/01/01 00:25:18;;;;;;;11.82;7.05;;;;;;;-20.08;66.97;99943.00;5018701;28;20332;-61
2022/01/01 00:27:49;;;;;;;9.70;5.78;;;;;;;-20.03;67.61;99955.91;5018752;28;20109;-61
2022/01/01 00:30:22;;;;;;;6.68;4.82;;;;;;;-19.92;67.36;99954.44;5018753;28;20089;-62
2022/01/01 00:32:52;;;;;;;9.13;5.22;;;;;;;-20.27;67.16;99887.25;5017296;28;20073;-62
2022/01/01 00:35:23;;;;;;;9.23;5.65;;;;;;;-19.47;67.18;99959.59;5018521;28;20085;-62
2022/01/01 00:37:54;;;;;;;9.00;5.65;;;;;;;-18.89;67.64;99965.13;5018397;28;20283;-61
2022/01/01 00:40:25;;;;;;;9.18;5.47;;;;;;;-18.87;66.97;99921.28;5018468;28;20077;-63
2022/01/01 00:42:55;;;;;;;7.32;4.80;;;;;;;-18.30;66.75;99968.88;5017742;28;20084;-64
2022/01/01 00:45:28;;;;;;;8.40;4.68;;;;;;;-18.03;66.43;99960.53;5018305;28;20378;-61
2022/01/01 00:47:59;;;;;;;7.22;4.65;;;;;;;-17.68;66.26;99977.75;5018209;28;20091;-62
2022/01/01 00:50:29;;;;;;;6.35;4.20;;;;;;;-17.87;66.26;99952.78;5018065;28;20066;-63
2022/01/01 00:53:03;;;;;;;7.03;4.00;;;;;;;-17.70;66.94;99972.63;5018222;28;20064;-61
2022/01/01 00:55:34;;;;;;;5.97;3.78;;;;;;;-17.55;67.41;99972.25;5017871;28;20105;-62
2022/01/01 00:58:05;;;;;;;4.30;3.15;;;;;;;-17.37;67.27;99977.97;5015833;28;20061;-61
2022/01/01 01:00:37;;;;;;;3.47;3.17;;;;;;;-17.23;67.01;99985.06;5018183;28;20118;-61
2022/01/01 01:03:11;;;;;;;7.55;4.70;;;;;;;-17.91;65.60;99900.88;5018349;28;20056;-63
2022/01/01 01:05:43;;;;;;;6.03;3.80;;;;;;;-17.50;65.84;99991.88;5017000;28;20384;-62
2022/01/01 01:08:16;;;;;;;3.58;3.28;;;;;;;-17.27;65.95;99968.97;5017850;28;20077;-61
2022/01/01 01:10:48;;;;;;;4.40;3.15;;;;;;;-16.91;65.69;99982.03;5018000;28;20331;-63
2022/01/01 01:13:20;;;;;;;2.80;2.60;;;;;;;-16.71;65.52;99962.09;5017688;28;20058;-62
2022/01/01 01:15:53;;;;;;;3.10;2.80;;;;;;;-16.54;64.96;99956.03;5017741;28;20069;-62
2022/01/01 01:18:24;;;;;;;4.00;2.50;;;;;;;-16.60;64.61;99916.34;5017841;28;20053;-62
2022/01/01 01:20:55;;;;;;;2.85;2.65;;;;;;;-16.09;64.00;99983.16;5017779;28;20053;-64
2022/01/01 01:23:26;;;;;;;8.82;2.70;;;;;;;-16.00;63.92;99993.03;5017755;28;20096;-61
2022/01/01 01:26:00;;;;;;;4.50;2.65;;;;;;;-15.96;63.61;99990.06;5011435;28;20052;-62
2022/01/01 01:28:33;;;;;;;3.30;2.90;;;;;;;-15.79;63.78;99979.81;5017004;28;20050;-63
2022/01/01 01:31:06;;;;;;;4.05;3.03;;;;;;;-15.45;63.43;99972.50;5011276;28;20113;-62
2022/01/01 01:33:36;;;;;;;5.47;3.75;;;;;;;-15.03;63.33;100004.28;4999711;28;20052;-62
2022/01/01 01:36:07;;;;;;;10.98;3.92;;;;;;;-14.70;63.49;99995.16;4997764;28;20066;-66
2022/01/01 01:38:38;;;;;;;10.02;5.43;;;;;;;-14.32;63.52;99989.72;4997969;28;20058;-63
2022/01/01 01:41:10;;;;;;;19.13;8.30;;;;;;;-13.93;63.61;99996.91;5007751;28;20073;-64
2022/01/01 01:43:41;;;;;;;22.40;9.77;;;;;;;-13.59;63.26;99990.28;5008381;28;20056;-63
2022/01/01 01:46:14;;;;;;;8.73;5.05;;;;;;;-13.36;63.12;99984.44;5017060;28;20085;-64
2022/01/01 01:48:46;;;;;;;8.18;5.10;;;;;;;-13.32;63.26;99991.44;5011054;28;20057;-62
2022/01/01 01:51:17;;;;;;;9.68;5.38;;;;;;;-13.27;63.14;99989.28;5017184;28;20077;-61
2022/01/01 01:53:48;;;;;;;7.28;5.32;;;;;;;-13.19;63.04;99990.66;5012106;28;20077;-62
2022/01/01 01:56:19;;;;;;;7.85;5.60;;;;;;;-13.84;62.88;99886.25;5016288;28;20332;-62
2022/01/01 01:58:50;;;;;;;13.57;6.63;;;;;;;-13.12;62.86;99985.31;5017290;28;20236;-61
2022/01/01 02:01:24;;;;;;;19.35;9.68;;;;;;;-12.87;62.46;99987.09;5017323;28;20117;-63
2022/01/01 02:03:57;;;;;;;37.70;16.35;;;;;;;-12.65;62.38;99995.41;5016074;28;20096;-61
2022/01/01 02:06:27;;;;;;;29.75;11.68;;;;;;;-12.50;62.03;99975.47;5016300;28;20372;-63
2022/01/01 02:08:58;;;;;;;21.13;9.13;;;;;;;-12.25;62.09;99988.13;5010689;28;20877;-63
2022/01/01 02:11:29;;;;;;;17.65;7.90;;;;;;;-12.07;62.16;99977.56;4952078;28;20076;-61
2022/01/01 02:14:16;;;;;;;12.68;6.45;;;;;;;-11.81;62.23;99986.84;5003400;28;20149;-62
2022/01/01 02:19:54;;;;;;;10.95;5.80;;;;;;;-12.52;58.62;99991.25;5093406;27;2330062;-61
2022/01/01 02:22:27;;;;;;;15.13;7.47;;;;;;;-13.78;58.57;100014.78;5151794;27;20087;-62
2022/01/01 02:24:58;;;;;;;7.00;3.80;;;;;;;-14.54;59.96;100020.72;5151950;27;20054;-63
2022/01/01 02:27:29;;;;;;;5.70;3.38;;;;;;;-14.76;61.61;100024.81;5152004;27;20047;-62
2022/01/01 02:29:59;;;;;;;6.75;3.30;;;;;;;-14.53;62.21;100004.91;5146272;27;20047;-62
2022/01/01 02:32:30;;;;;;;4.18;2.50;;;;;;;-14.28;61.78;99996.72;5149035;27;20074;-62
2022/01/01 02:35:01;;;;;;;8.35;3.90;;;;;;;-14.00;61.59;99990.56;5130710;27;20050;-62
2022/01/01 02:37:38;;;;;;;8.20;4.82;;;;;;;-13.48;62.05;100014.59;5148773;27;20051;-62
2022/01/01 02:40:10;;;;;;;17.00;8.68;;;;;;;-13.33;62.03;99994.69;5148882;27;20047;-64
2022/01/01 02:42:43;;;;;;;8.20;5.38;;;;;;;-12.86;62.05;99988.81;5148978;27;20038;-61
2022/01/01 02:45:16;;;;;;;7.32;3.38;;;;;;;-12.46;61.96;100016.81;5149344;27;20269;-62
2022/01/01 02:47:47;;;;;;;5.40;2.70;;;;;;;-12.16;61.55;100002.97;5148942;27;20066;-64
2022/01/01 02:50:28;;;;;;;4.50;2.70;;;;;;;-11.92;61.51;100008.84;5150728;27;20141;-63
2022/01/01 02:53:01;;;;;;;3.63;2.75;;;;;;;-11.87;61.35;99967.19;5149234;27;20031;-63
2022/01/01 02:55:31;;;;;;;4.82;2.33;;;;;;;-11.43;60.91;100017.16;5150328;27;20249;-62
2022/01/01 02:58:03;;;;;;;5.88;3.08;;;;;;;-11.56;59.83;100019.63;5150097;27;20043;-64
2022/01/01 03:00:34;;;;;;;6.55;3.13;;;;;;;-11.75;59.77;100023.44;5137943;27;20130;-64
2022/01/01 03:03:06;;;;;;;8.73;5.07;;;;;;;-11.95;59.78;100023.75;5107760;28;20051;-64
2022/01/01 03:05:37;;;;;;;8.70;4.65;;;;;;;-12.09;59.73;100024.44;5108401;28;20071;-63
2022/01/01 03:08:09;;;;;;;7.85;3.78;;;;;;;-12.41;59.64;100026.44;5109447;28;20056;-63
2022/01/01 03:10:40;;;;;;;10.93;4.32;;;;;;;-12.45;59.77;100028.66;5110141;28;20044;-62
2022/01/01 03:13:11;;;;;;;4.60;3.05;;;;;;;-12.22;59.81;100043.72;5110521;28;20048;-61
2022/01/01 03:15:42;;;;;;;11.38;3.60;;;;;;;-12.01;59.96;100049.38;5110324;28;20066;-64
2022/01/01 03:18:13;;;;;;;6.90;2.90;;;;;;;-11.85;59.97;100055.47;5108958;28;20114;-64
2022/01/01 03:20:44;;;;;;;5.28;2.75;;;;;;;-12.11;59.73;100000.78;5109067;28;20043;-62
2022/01/01 03:23:16;;;;;;;3.65;2.50;;;;;;;-11.58;60.02;100064.00;5109949;28;20258;-64
2022/01/01 03:25:47;;;;;;;3.92;2.30;;;;;;;-11.42;60.70;100054.19;5109556;28;20063;-64
2022/01/01 03:28:18;;;;;;;5.95;2.50;;;;;;;-11.18;60.50;100065.06;5109726;28;20125;-64
2022/01/01 03:30:49;;;;;;;3.78;2.20;;;;;;;-10.93;60.72;100077.66;5096867;28;20054;-62
2022/01/01 03:33:19;;;;;;;6.82;2.38;;;;;;;-10.76;60.54;100080.38;5095997;28;20207;-64
2022/01/01 03:35:50;;;;;;;4.13;2.15;;;;;;;-10.69;60.37;100087.59;5095376;28;20601;-62
2022/01/01 03:38:23;;;;;;;2.20;2.00;;;;;;;-10.86;59.97;100057.09;5096135;28;20101;-64
2022/01/01 03:40:53;;;;;;;5.28;2.53;;;;;;;-10.49;59.78;100097.31;5096107;28;20393;-62
2022/01/01 03:43:24;;;;;;;5.25;2.78;;;;;;;-10.44;59.85;100095.97;5095860;28;20044;-61
2022/01/01 03:45:55;;;;;;;5.85;2.33;;;;;;;-10.34;59.88;100101.59;5096099;28;20218;-64
2022/01/01 03:48:26;;;;;;;5.43;2.22;;;;;;;-10.27;59.90;100103.72;5096163;28;20060;-64
2022/01/01 03:50:56;;;;;;;4.65;2.50;;;;;;;-10.24;60.09;100098.84;5096100;28;20063;-62
2022/01/01 03:53:29;;;;;;;3.90;2.30;;;;;;;-10.21;59.82;100104.09;5095858;28;20158;-62
2022/01/01 03:56:00;;;;;;;3.65;2.30;;;;;;;-10.33;59.59;100078.97;5095642;28;20238;-63
2022/01/01 03:58:31;;;;;;;2.15;1.95;;;;;;;-10.32;59.42;100079.84;5095948;28;20054;-64
2022/01/01 04:01:02;;;;;;;5.72;2.60;;;;;;;-10.12;59.25;100114.78;5095685;28;20043;-62
2022/01/01 04:03:33;;;;;;;4.40;2.13;;;;;;;-10.10;58.55;100108.19;5095804;28;20044;-62
2022/01/01 04:06:03;;;;;;;5.15;2.38;;;;;;;-10.02;58.96;100101.94;5095469;28;20243;-63
2022/01/01 04:08:36;;;;;;;6.30;2.42;;;;;;;-9.95;58.68;100097.28;5095442;28;20090;-64
2022/01/01 04:11:07;;;;;;;5.00;2.60;;;;;;;-10.05;59.18;100080.69;5049050;28;20906;-62
2022/01/01 04:13:37;;;;;;;6.53;2.28;;;;;;;-9.88;59.30;100096.88;5097444;28;20067;-62
2022/01/01 04:16:10;;;;;;;5.25;2.33;;;;;;;-9.87;59.37;100078.41;5093495;28;20644;-63
2022/01/01 04:18:41;;;;;;;4.32;2.53;;;;;;;-9.61;59.51;100096.06;5093788;28;20607;-63
2022/01/01 04:21:12;;;;;;;5.25;2.45;;;;;;;-9.43;59.50;100085.31;5093814;28;20115;-63
2022/01/01 04:23:48;;;;;;;5.82;2.80;;;;;;;-9.28;59.59;100096.34;5094297;28;20040;-61
2022/01/01 04:26:18;;;;;;;4.57;2.17;;;;;;;-9.52;59.22;100024.91;5094354;28;20243;-64
2022/01/01 04:28:50;;;;;;;2.72;1.98;;;;;;;-9.20;59.14;100074.91;5094217;28;20048;-64
2022/01/01 04:31:21;;;;;;;8.25;2.72;;;;;;;-9.51;59.29;100000.47;5094390;28;20301;-63
2022/01/01 04:33:52;;;;;;;4.70;2.60;;;;;;;-9.13;59.58;100061.81;5094950;28;20067;-63
2022/01/01 04:36:23;;;;;;;10.68;4.20;;;;;;;-9.17;59.15;100064.94;5095103;28;20421;-63
2022/01/01 04:38:55;;;;;;;16.90;6.65;;;;;;;-9.18;59.25;100070.81;5094171;28;20052;-62
2022/01/01 04:41:26;;;;;;;21.65;8.07;;;;;;;-9.39;59.30;100072.03;5094041;28;20120;-62
2022/01/01 04:43:57;;;;;;;4.97;3.17;;;;;;;-9.68;59.12;100066.13;5094812;28;20048;-63
2022/01/01 04:46:28;;;;;;;5.70;3.35;;;;;;;-9.58;59.54;100096.25;5094685;28;20272;-61
2022/01/01 04:48:58;;;;;;;9.88;3.00;;;;;;;-9.67;58.90;100110.84;5094650;28;20036;-63
2022/01/01 04:51:29;;;;;;;6.70;2.50;;;;;;;-9.80;58.64;100108.34;5094739;28;20106;-62
2022/01/01 04:54:02;;;;;;;5.78;2.30;;;;;;;-9.88;57.81;100122.16;5094548;28;20055;-63
2022/01/01 04:56:34;;;;;;;6.65;2.53;;;;;;;-10.03;57.84;100120.44;5094632;28;20051;-61
2022/01/01 04:59:04;;;;;;;10.60;2.70;;;;;;;-10.23;57.49;100136.00;5094629;28;20131;-62
2022/01/01 05:01:35;;;;;;;5.45;2.78;;;;;;;-10.42;57.12;100124.72;5094579;28;20052;-63
2022/01/01 05:04:06;;;;;;;7.35;3.05;;;;;;;-10.52;57.50;100109.75;5094303;28;20119;-62
2022/01/01 05:06:37;;;;;;;5.30;2.90;;;;;;;-10.27;57.53;100151.72;5094585;28;20389;-63
2022/01/01 05:09:10;;;;;;;4.82;2.63;;;;;;;-10.11;57.72;100166.19;5094478;28;20111;-62
2022/01/01 05:11:41;;;;;;;6.50;3.40;;;;;;;-9.99;57.94;100162.78;5094246;28;20094;-65
2022/01/01 05:14:12;;;;;;;6.25;2.80;;;;;;;-9.87;58.08;100161.84;5094581;28;20054;-64
2022/01/01 05:16:42;;;;;;;5.45;2.50;;;;;;;-9.68;58.53;100179.91;5094342;28;20082;-61
2022/01/01 05:19:14;;;;;;;5.68;2.40;;;;;;;-9.53;58.90;100194.28;5094287;28;20111;-61
2022/01/01 05:21:44;;;;;;;6.53;2.88;;;;;;;-9.62;59.10;100165.13;5094191;28;20079;-64
2022/01/01 05:24:18;;;;;;;5.07;2.95;;;;;;;-9.48;59.02;100206.47;5094567;28;20086;-61
2022/01/01 05:26:49;;;;;;;8.25;2.88;;;;;;;-9.53;59.42;100204.41;5094545;28;20354;-61
2022/01/01 05:29:20;;;;;;;6.47;2.92;;;;;;;-10.03;59.16;100135.59;5094417;28;20475;-61
2022/01/01 05:31:50;;;;;;;8.00;2.83;;;;;;;-9.69;59.78;100208.50;5094249;28;20052;-61
2022/01/01 05:34:21;;;;;;;7.78;2.97;;;;;;;-10.07;59.25;100163.97;5094280;28;20357;-63
2022/01/01 05:36:52;;;;;;;7.93;3.60;;;;;;;-9.75;59.87;100218.25;5094201;28;20952;-63
2022/01/01 05:39:26;;;;;;;8.25;3.80;;;;;;;-9.95;60.22;100193.34;5093453;28;20055;-63
2022/01/01 05:41:57;;;;;;;9.75;3.60;;;;;;;-9.64;60.96;100242.53;5093842;28;20128;-62
2022/01/01 05:44:28;;;;;;;7.07;2.80;;;;;;;-9.57;61.50;100239.63;5094018;28;20048;-63
2022/01/01 05:46:59;;;;;;;6.53;2.83;;;;;;;-9.58;62.04;100242.94;5094130;28;20323;-62
2022/01/01 05:49:29;;;;;;;5.45;3.30;;;;;;;-9.64;62.60;100247.59;5093302;28;20044;-62
2022/01/01 05:52:00;;;;;;;6.45;2.70;;;;;;;-9.66;62.80;100245.75;5093601;28;20051;-61
2022/01/01 05:54:33;;;;;;;6.88;2.83;;;;;;;-9.61;63.11;100263.00;5093729;28;20418;-61
2022/01/01 05:57:03;;;;;;;6.38;2.60;;;;;;;-9.69;63.73;100269.19;5093877;28;20100;-61
2022/01/01 05:59:34;;;;;;;11.75;2.70;;;;;;;-9.74;64.06;100270.53;5093449;28;20078;-62
2022/01/01 06:02:05;;;;;;;3.85;2.17;;;;;;;-9.74;64.67;100275.59;5093311;28;20048;-61
2022/01/01 06:04:36;;;;;;;6.88;2.60;;;;;;;-9.72;65.05;100284.16;5093605;28;20078;-60
2022/01/01 06:07:07;;;;;;;7.15;2.60;;;;;;;-9.72;65.51;100289.22;5093524;28;20059;-60
2022/01/01 06:09:40;;;;;;;5.60;2.70;;;;;;;-10.08;66.05;100245.63;5093663;28;20059;-62
2022/01/01 06:12:11;;;;;;;3.25;2.00;;;;;;;-9.96;67.37;100272.47;5093644;28;20047;-61
2022/01/01 06:14:42;;;;;;;5.78;2.53;;;;;;;-9.79;68.19;100302.25;5093645;28;20048;-61
2022/01/01 06:17:13;;;;;;;8.57;3.45;;;;;;;-9.80;69.14;100310.63;5093714;28;20362;-62
2022/01/01 06:19:43;;;;;;;11.80;2.53;;;;;;;-9.85;69.88;100311.97;5092956;28;20115;-61
2022/01/01 06:22:15;;;;;;;9.65;2.67;;;;;;;-9.92;70.59;100325.00;5093001;28;20051;-61
2022/01/01 06:24:47;;;;;;;4.25;2.75;;;;;;;-9.95;71.11;100324.78;5093256;28;20055;-63
2022/01/01 06:27:18;;;;;;;9.45;3.25;;;;;;;-10.00;71.66;100338.00;5093247;28;20059;-62
2022/01/01 06:29:50;;;;;;;6.82;2.58;;;;;;;-10.14;72.39;100318.50;5093698;28;20071;-62
2022/01/01 06:32:21;;;;;;;6.28;2.75;;;;;;;-10.22;72.35;100304.47;5093627;28;20048;-64
2022/01/01 06:34:51;;;;;;;7.07;2.88;;;;;;;-10.33;72.61;100290.28;5092038;28;20040;-62
2022/01/01 06:37:22;;;;;;;3.50;2.70;;;;;;;-10.16;73.14;100330.16;5093630;28;20048;-62
2022/01/01 06:39:55;;;;;;;4.95;2.72;;;;;;;-10.06;73.55;100351.84;5093492;28;20060;-63
2022/01/01 06:42:26;;;;;;;5.35;2.50;;;;;;;-10.08;73.67;100358.47;5093186;28;20052;-64
2022/01/01 06:44:56;;;;;;;9.38;2.92;;;;;;;-10.17;74.71;100358.72;5093490;28;20044;-62
2022/01/01 06:47:27;;;;;;;5.68;2.85;;;;;;;-10.38;76.18;100342.13;5092363;28;20106;-63
2022/01/01 06:49:58;;;;;;;5.28;2.70;;;;;;;-10.51;76.09;100351.41;5092621;28;20055;-64
2022/01/01 06:52:29;;;;;;;7.38;2.85;;;;;;;-10.37;77.21;100374.22;5093155;28;20072;-61
2022/01/01 06:55:01;;;;;;;7.22;2.72;;;;;;;-10.35;77.61;100377.75;5093054;28;20071;-61
2022/01/01 06:57:32;;;;;;;9.13;3.35;;;;;;;-10.35;77.92;100380.25;5093027;28;20060;-63
2022/01/01 07:00:03;;;;;;;36.80;13.07;;;;;;;-10.32;78.13;100388.03;5092946;28;20111;-63
2022/01/01 07:02:38;;;;;;;16.85;7.97;;;;;;;-10.30;78.76;100391.56;5093099;28;20097;-61
2022/01/01 07:05:10;;;;;;;9.73;6.07;;;;;;;-10.27;78.56;100382.50;5093878;28;20064;-63
2022/01/01 07:07:42;;;;;;;10.05;5.60;;;;;;;-10.34;78.83;100389.59;5096878;28;20072;-61
2022/01/01 07:10:15;;;;;;;10.25;4.88;;;;;;;-10.34;78.85;100399.69;5096917;28;20052;-61
2022/01/01 07:12:45;;;;;;;11.35;4.03;;;;;;;-10.36;78.91;100407.16;5096916;28;20052;-63
2022/01/01 07:15:17;;;;;;;11.85;5.13;;;;;;;-10.39;79.17;100421.22;5097024;28;20087;-62
2022/01/01 07:17:47;;;;;;;10.15;4.40;;;;;;;-10.58;79.36;100399.78;5096565;28;20040;-61
2022/01/01 07:20:18;;;;;;;15.75;5.25;;;;;;;-10.51;80.05;100409.50;5040903;27;20052;-65
2022/01/01 07:22:49;;;;;;;21.63;9.20;;;;;;;-10.41;79.99;100428.69;5081807;28;20125;-63
2022/01/01 07:25:21;;;;;;;12.88;6.53;;;;;;;-10.51;80.21;100412.03;5096405;28;20047;-62
2022/01/01 07:27:52;;;;;;;13.90;6.35;;;;;;;-10.35;80.62;100439.25;5096476;28;20080;-62
2022/01/01 07:30:23;;;;;;;6.57;3.83;;;;;;;-10.29;81.06;100433.72;5096799;28;20370;-64
2022/01/01 07:32:54;;;;;;;12.02;3.60;;;;;;;-10.27;81.37;100414.47;5096564;28;20054;-61
2022/01/01 07:35:25;;;;;;;6.45;2.85;;;;;;;-10.12;81.32;100443.31;5096505;28;20052;-66
2022/01/01 07:37:56;;;;;;;6.85;3.03;;;;;;;-10.10;81.08;100441.78;5096072;28;20093;-61
2022/01/01 07:40:30;;;;;;;10.73;3.22;;;;;;;-10.06;81.01;100453.84;5095736;28;20082;-61
2022/01/01 07:43:01;;;;;;;11.25;4.57;;;;;;;-9.99;81.23;100450.94;5096265;28;20107;-60
2022/01/01 07:45:32;;;;;;;30.90;10.10;;;;;;;-9.95;81.57;100446.13;5096075;28;20040;-61
2022/01/01 07:48:03;;;;;;;18.08;6.38;;;;;;;-9.90;81.51;100449.84;5095770;28;20052;-61
2022/01/01 07:50:34;;;;;;;11.73;5.15;;;;;;;-9.90;81.65;100444.78;5095561;28;20066;-62
2022/01/01 07:53:05;;;;;;;18.55;7.13;;;;;;;-9.86;81.86;100447.63;5095997;28;20052;-63
2022/01/01 07:55:38;;;;;;;13.27;5.07;;;;;;;-9.85;81.72;100443.44;5095820;28;20060;-63
2022/01/01 07:58:08;;;;;;;11.63;4.22;;;;;;;-9.83;81.51;100434.31;5095582;28;20079;-62
2022/01/01 08:00:39;;;;;;;19.05;6.13;;;;;;;-9.85;81.42;100429.16;5095745;28;20115;-62
2022/01/01 08:03:13;;;;;;;15.07;4.03;;;;;;;-10.11;81.44;100389.44;5095649;28;20060;-63
2022/01/01 08:05:43;;;;;;;10.88;4.22;;;;;;;-9.83;81.56;100425.06;5095715;28;20047;-61
2022/01/01 08:08:14;;;;;;;8.27;3.63;;;;;;;-9.84;81.32;100424.97;5095652;28;20052;-62
2022/01/01 08:10:46;;;;;;;11.15;4.18;;;;;;;-9.90;81.47;100434.69;5095736;28;20090;-62
2022/01/01 08:13:23;;;;;;;12.85;4.18;;;;;;;-9.91;81.29;100432.91;5095422;28;20052;-62
2022/01/01 08:15:56;;;;;;;12.13;4.05;;;;;;;-10.01;81.49;100437.34;5095473;28;20347;-61
2022/01/01 08:18:27;;;;;;;13.75;4.32;;;;;;;-9.92;81.57;100448.84;5094966;28;20055;-62
2022/01/01 08:20:58;;;;;;;8.02;4.00;;;;;;;-10.08;81.33;100440.22;5095337;28;20056;-63
2022/01/01 08:23:28;;;;;;;13.65;3.65;;;;;;;-10.16;81.24;100440.47;5095532;28;20242;-62
2022/01/01 08:26:01;;;;;;;11.20;3.92;;;;;;;-10.08;81.36;100465.50;5095501;28;20089;-64
2022/01/01 08:28:31;;;;;;;11.27;4.82;;;;;;;-10.12;81.65;100468.59;5095283;28;20060;-61
2022/01/01 08:31:02;;;;;;;14.52;5.90;;;;;;;-10.13;81.62;100456.72;5095449;28;20048;-63
2022/01/01 08:33:33;;;;;;;87.90;46.00;;;;;;;-10.18;81.34;100463.13;5095193;28;20052;-63
2022/01/01 08:36:04;;;;;;;90.93;38.55;;;;;;;-10.33;81.21;100468.03;5094512;28;20044;-64
2022/01/01 08:38:35;;;;;;;51.22;28.50;;;;;;;-10.56;80.70;100468.91;5095183;28;20927;-64
2022/01/01 08:41:07;;;;;;;19.30;10.73;;;;;;;-10.78;80.37;100470.69;5095143;28;20054;-62
2022/01/01 08:43:38;;;;;;;15.75;9.55;;;;;;;-11.08;79.88;100480.34;5094844;28;20063;-61
2022/01/01 08:46:09;;;;;;;15.13;7.32;;;;;;;-11.32;79.83;100484.47;5094836;28;20040;-63
2022/01/01 08:48:39;;;;;;;12.85;5.60;;;;;;;-11.53;79.91;100503.91;5094667;28;20051;-61
2022/01/01 08:51:15;;;;;;;9.35;4.80;;;;;;;-11.82;79.50;100484.94;5094784;28;20185;-61
2022/01/01 08:53:46;;;;;;;17.15;9.60;;;;;;;-12.13;79.54;100455.69;5094870;28;20385;-61
2022/01/01 08:56:19;;;;;;;48.42;20.50;;;;;;;-12.09;79.52;100508.06;5094391;28;20067;-61
2022/01/01 08:58:49;;;;;;;41.55;14.68;;;;;;;-12.38;79.18;100494.09;5094177;28;20063;-61
2022/01/01 09:01:21;;;;;;;45.30;16.63;;;;;;;-12.50;79.01;100501.59;5094691;28;20115;-62
2022/01/01 09:03:52;;;;;;;31.98;13.80;;;;;;;-12.68;79.92;100495.06;5094611;28;20054;-61
2022/01/01 09:06:23;;;;;;;15.68;7.95;;;;;;;-12.76;80.01;100489.44;5094761;28;20070;-61
2022/01/01 09:08:53;;;;;;;14.43;6.63;;;;;;;-12.78;79.85;100516.13;5094907;28;20115;-62
2022/01/01 09:11:26;;;;;;;9.50;5.47;;;;;;;-12.82;80.10;100519.16;5094675;28;20112;-62
2022/01/01 09:13:56;;;;;;;8.55;4.90;;;;;;;-12.86;80.07;100517.16;5094669;28;20107;-62
2022/01/01 09:16:29;;;;;;;6.65;3.78;;;;;;;-13.12;80.20;100478.22;5094360;28;20059;-62
2022/01/01 09:19:00;;;;;;;8.18;4.07;;;;;;;-12.86;80.37;100527.22;5094418;28;20072;-62
2022/01/01 09:21:31;;;;;;;11.35;4.05;;;;;;;-12.87;80.55;100535.53;5094288;28;20095;-61
2022/01/01 09:24:02;;;;;;;5.43;3.28;;;;;;;-12.93;80.89;100530.84;5094402;28;20085;-61
2022/01/01 09:26:34;;;;;;;9.75;3.85;;;;;;;-12.84;80.95;100550.88;5094273;28;20101;-64
2022/01/01 09:29:06;;;;;;;34.20;11.38;;;;;;;-12.85;80.95;100554.16;5093528;28;20047;-61
2022/01/01 09:31:37;;;;;;;19.50;6.22;;;;;;;-12.75;81.56;100551.63;5094076;28;20200;-61
2022/01/01 09:34:08;;;;;;;13.07;5.28;;;;;;;-12.71;81.63;100553.59;5093942;28;20052;-62
2022/01/01 09:36:39;;;;;;;15.13;5.28;;;;;;;-12.69;81.22;100556.25;5093465;28;20060;-63
2022/01/01 09:39:10;;;;;;;7.88;4.28;;;;;;;-12.72;81.73;100550.97;5093817;28;20051;-63
2022/01/01 09:41:43;;;;;;;25.75;11.55;;;;;;;-12.55;83.83;100544.75;5093545;28;20138;-63
2022/01/01 09:44:15;;;;;;;11.32;6.50;;;;;;;-12.24;83.32;100559.00;5092862;28;20051;-64
2022/01/01 09:46:50;;;;;;;12.52;4.22;;;;;;;-12.06;82.89;100568.78;5092806;28;20056;-63
2022/01/01 09:49:22;;;;;;;6.00;2.67;;;;;;;-11.99;82.48;100566.84;5093900;28;20212;-62
2022/01/01 09:51:53;;;;;;;9.20;2.85;;;;;;;-11.76;82.83;100581.19;5092928;28;20258;-62
2022/01/01 09:54:24;;;;;;;8.50;3.05;;;;;;;-11.54;82.58;100582.84;5093184;28;20044;-62
2022/01/01 09:56:56;;;;;;;9.27;4.45;;;;;;;-11.74;81.84;100504.03;5093865;28;20115;-63
2022/01/01 09:59:27;;;;;;;6.22;2.90;;;;;;;-11.22;81.62;100584.41;5092867;28;20063;-63
2022/01/01 10:01:58;;;;;;;10.13;3.03;;;;;;;-11.16;81.17;100587.38;5093321;28;20044;-61
2022/01/01 10:04:41;;;;;;;17.30;4.20;;;;;;;-11.08;81.06;100587.19;5093343;28;20141;-63
2022/01/01 10:07:12;;;;;;;16.00;7.38;;;;;;;-11.12;80.50;100571.72;5093157;28;20080;-63
2022/01/01 10:09:43;;;;;;;9.95;4.93;;;;;;;-11.54;80.18;100510.59;5092897;28;20059;-61
2022/01/01 10:12:17;;;;;;;8.90;4.20;;;;;;;-11.84;80.37;100456.22;5093450;28;20059;-62
2022/01/01 10:14:49;;;;;;;6.07;3.00;;;;;;;-11.13;80.13;100587.59;5093509;28;20052;-63
2022/01/01 10:17:22;;;;;;;5.10;3.15;;;;;;;-11.44;80.11;100537.38;5093589;28;20048;-62
2022/01/01 10:19:54;;;;;;;6.57;3.70;;;;;;;-11.25;80.04;100549.75;5093615;28;20123;-60
2022/01/01 10:22:26;;;;;;;7.68;3.13;;;;;;;-11.06;80.36;100551.97;5092980;28;20131;-61
2022/01/01 10:27:57;;;;;;;31.58;11.18;;;;;;;-10.98;79.53;100558.47;5093227;28;20060;-63
2022/01/01 10:30:35;;;;;;;27.70;10.52;;;;;;;-10.95;79.50;100568.78;5093169;28;20059;-62
2022/01/01 10:33:09;;;;;;;13.52;5.80;;;;;;;-11.08;79.49;100561.09;5093075;28;20056;-61
2022/01/01 10:35:42;;;;;;;8.70;4.13;;;;;;;-11.15;78.87;100553.81;5092884;28;20308;-63
2022/01/01 10:38:15;;;;;;;14.65;5.35;;;;;;;-11.02;79.53;100576.66;5093184;28;20254;-62
2022/01/01 10:40:46;;;;;;;13.65;4.25;;;;;;;-11.02;79.44;100556.47;5095847;28;20052;-60
2022/01/01 10:43:20;;;;;;;23.27;6.60;;;;;;;-10.99;79.08;100571.84;5097036;28;20062;-62
2022/01/01 10:45:51;;;;;;;21.10;8.77;;;;;;;-11.21;78.75;100555.88;5097312;28;20111;-62
2022/01/01 10:48:28;;;;;;;17.92;6.93;;;;;;;-11.26;78.83;100555.53;5097463;28;20085;-62
2022/01/01 10:50:59;;;;;;;28.27;8.45;;;;;;;-11.29;78.75;100561.22;5096999;28;20272;-61
2022/01/01 10:53:31;;;;;;;39.00;14.65;;;;;;;-11.48;78.27;100558.09;5097348;28;20949;-61
2022/01/01 10:56:03;;;;;;;23.58;9.45;;;;;;;-11.68;78.33;100559.13;5096826;28;20387;-62
2022/01/01 10:58:36;;;;;;;17.20;5.90;;;;;;;-11.92;78.17;100532.94;5096203;28;20094;-60
2022/01/01 11:01:08;;;;;;;11.15;4.13;;;;;;;-11.84;78.45;100562.06;5096950;28;20059;-63
2022/01/01 11:03:41;;;;;;;12.63;5.55;;;;;;;-11.75;79.01;100575.41;5096571;28;20067;-61
2022/01/01 11:06:13;;;;;;;22.42;7.65;;;;;;;-11.74;78.72;100583.84;5096729;28;20317;-61
2022/01/01 11:08:45;;;;;;;21.50;9.27;;;;;;;-11.80;78.30;100604.41;5097089;28;20040;-61
2022/01/01 11:11:16;;;;;;;24.92;9.18;;;;;;;-11.82;78.33;100605.06;5097112;28;20263;-61
2022/01/01 11:13:49;;;;;;;17.05;7.35;;;;;;;-11.82;78.38;100595.84;5096556;28;20052;-63
2022/01/01 11:16:20;;;;;;;20.70;7.30;;;;;;;-11.80;78.19;100599.38;5096799;28;20056;-61
2022/01/01 11:18:51;;;;;;;25.85;8.60;;;;;;;-11.85;77.90;100600.66;5096257;28;20056;-62
2022/01/01 11:21:22;;;;;;;57.22;19.10;;;;;;;-11.89;77.46;100593.63;5096789;28;20275;-62
2022/01/01 11:23:53;;;;;;;62.35;22.23;;;;;;;-11.90;77.56;100591.91;5095628;28;20150;-61
2022/01/01 11:26:26;;;;;;;39.38;14.38;;;;;;;-12.07;76.97;100584.66;5096437;28;20099;-61
2022/01/01 11:28:59;;;;;;;20.42;7.38;;;;;;;-12.32;76.55;100575.16;5095625;28;20258;-63
2022/01/01 11:31:30;;;;;;;13.93;5.65;;;;;;;-12.27;76.88;100594.03;5096634;28;20094;-62
2022/01/01 11:34:01;;;;;;;12.85;5.53;;;;;;;-12.25;76.53;100592.53;5096385;28;20079;-61
2022/01/01 11:36:35;;;;;;;9.82;3.55;;;;;;;-12.31;75.98;100581.06;5096373;28;20075;-64
2022/01/01 11:39:07;;;;;;;9.32;3.00;;;;;;;-12.39;75.55;100603.13;5095557;28;20153;-62
2022/01/01 11:41:43;;;;;;;6.43;3.03;;;;;;;-12.58;75.35;100597.38;5095989;28;20058;-61
2022/01/01 11:44:32;;;;;;;5.32;3.20;;;;;;;-12.68;75.23;100594.13;5095980;28;20048;-61